Time;durP1;ratioP1;P1;durP2;ratioP2;P2;SDS_P1;SDS_P2;PMS_P1;PMS_P2;Temp;Humidity;BMP_temperature;BMP_pressure;BME280_temperature;BME280_humidity;BME280_pressure;Samples;Min_cycle;Max_cycle;Signal;HPM_P1;HPM_P2
2023/05/02 00:00:08;;;;;;;;;;;13.30;92.10;;;;;;4965084;28;20381;-96
2023/05/02 00:02:34;;;;;;;;;;;13.30;92.10;;;;;;4965051;28;19914;-96
2023/05/02 00:05:00;;;;;;;;;;;13.40;92.00;;;;;;4963775;28;19933;-96
2023/05/02 00:07:26;;;;;;;;;;;13.30;91.90;;;;;;4981579;28;20294;-96
2023/05/02 00:09:52;;;;;;;;;;;13.30;91.90;;;;;;4963947;28;19910;-96
2023/05/02 00:12:17;;;;;;;;;;;13.30;91.90;;;;;;4980328;28;19916;-96
2023/05/02 00:14:43;;;;;;;;;;;13.20;91.90;;;;;;4962156;28;20013;-96
2023/05/02 00:17:16;;;;;;;;;;;13.20;92.20;;;;;;4980967;28;19910;-96
2023/05/02 00:19:42;;;;;;;;;;;13.20;92.30;;;;;;4980991;28;19973;-96
2023/05/02 00:22:07;;;;;;;;;;;13.30;92.30;;;;;;4981237;28;19911;-96
2023/05/02 00:24:33;;;;;;;;;;;13.30;92.30;;;;;;4963393;28;19910;-96
2023/05/02 00:26:59;;;;;;;;;;;13.30;92.40;;;;;;4963345;28;19910;-96
2023/05/02 00:29:24;;;;;;;;;;;13.30;92.50;;;;;;4963489;28;19981;-96
2023/05/02 00:31:50;;;;;;;;;;;13.20;92.40;;;;;;4981384;28;19910;-96
2023/05/02 00:34:15;;;;;;;;;;;13.20;92.40;;;;;;4963364;28;20394;-96
2023/05/02 00:36:41;;;;;;;;;;;13.20;92.40;;;;;;4963019;28;19911;-96
2023/05/02 00:39:07;;;;;;;;;;;13.10;92.60;;;;;;4962779;28;20381;-96
2023/05/02 00:41:33;;;;;;;;;;;13.00;92.80;;;;;;4979659;28;19910;-96
2023/05/02 00:43:58;;;;;;;;;;;12.90;93.00;;;;;;4979738;28;19942;-96
2023/05/02 00:46:24;;;;;;;;;;;12.90;93.10;;;;;;4961637;28;19910;-96
2023/05/02 00:48:50;;;;;;;;;;;12.80;93.30;;;;;;4961335;28;19917;-96
2023/05/02 00:51:16;;;;;;;;;;;12.80;93.60;;;;;;4978737;28;19910;-96
2023/05/02 00:53:43;;;;;;;;;;;12.80;93.70;;;;;;4960640;28;19921;-96
2023/05/02 00:56:08;;;;;;;;;;;12.80;93.80;;;;;;4978195;28;19918;-96
2023/05/02 00:58:34;;;;;;;;;;;12.70;94.00;;;;;;4961275;28;20346;-96
2023/05/02 01:01:09;;;;;;;;;;;12.70;94.10;;;;;;4978849;28;20005;-96
2023/05/02 01:04:02;;;;;;;;;;;12.70;94.20;;;;;;4978218;28;19921;-96
2023/05/02 01:06:30;;;;;;;;;;;12.70;94.20;;;;;;4962973;28;19910;-96
2023/05/02 01:09:16;;;;;;;;;;;12.70;94.20;;;;;;4960997;28;19985;-96
2023/05/02 01:11:41;;;;;;;;;;;12.80;94.20;;;;;;4979675;28;20386;-96
2023/05/02 01:14:09;;;;;;;;;;;12.90;94.10;;;;;;4979542;28;19944;-96
2023/05/02 01:16:39;;;;;;;;;;;12.90;94.00;;;;;;4961650;28;20545;-96
2023/05/02 01:19:08;;;;;;;;;;;12.90;93.90;;;;;;4961306;28;19921;-96
2023/05/02 01:21:34;;;;;;;;;;;12.90;93.80;;;;;;4978825;28;19910;-96
2023/05/02 01:24:11;;;;;;;;;;;12.90;93.80;;;;;;4961447;28;19933;-96
2023/05/02 01:26:43;;;;;;;;;;;12.90;93.80;;;;;;4979527;28;20346;-96
2023/05/02 01:29:10;;;;;;;;;;;12.90;93.90;;;;;;4962239;28;19910;-96
2023/05/02 01:31:38;;;;;;;;;;;13.00;93.90;;;;;;4961309;28;19911;-96
2023/05/02 01:34:05;;;;;;;;;;;13.10;93.80;;;;;;4961395;28;19917;-96
2023/05/02 01:36:32;;;;;;;;;;;13.10;93.80;;;;;;4961067;28;20280;-96
2023/05/02 01:38:59;;;;;;;;;;;13.10;93.70;;;;;;4978606;28;19911;-96
2023/05/02 01:41:25;;;;;;;;;;;13.10;93.60;;;;;;4962448;28;19920;-96
2023/05/02 01:43:52;;;;;;;;;;;13.10;93.60;;;;;;4962678;28;19914;-96
2023/05/02 01:46:19;;;;;;;;;;;13.10;93.50;;;;;;4962638;28;19910;-96
2023/05/02 01:48:46;;;;;;;;;;;13.10;93.60;;;;;;4962935;28;19910;-96
2023/05/02 01:51:14;;;;;;;;;;;13.10;93.60;;;;;;4962367;28;19961;-96
2023/05/02 01:53:39;;;;;;;;;;;13.10;93.60;;;;;;4962668;28;19922;-96
2023/05/02 01:56:06;;;;;;;;;;;13.10;93.60;;;;;;4980678;28;19924;-96
2023/05/02 01:58:32;;;;;;;;;;;13.10;93.70;;;;;;4961865;28;19975;-96
2023/05/02 02:00:59;;;;;;;;;;;13.00;93.70;;;;;;4978475;28;20417;-96
2023/05/02 02:03:26;;;;;;;;;;;12.90;93.90;;;;;;4978366;28;19914;-96
2023/05/02 02:05:52;;;;;;;;;;;12.90;94.10;;;;;;4961068;28;19910;-96
2023/05/02 02:08:17;;;;;;;;;;;12.80;94.30;;;;;;4961078;28;19980;-96
2023/05/02 02:10:45;;;;;;;;;;;12.80;94.50;;;;;;4961761;28;19918;-96
2023/05/02 02:13:25;;;;;;;;;;;12.80;94.50;;;;;;4979646;28;19918;-96
2023/05/02 02:15:52;;;;;;;;;;;12.80;94.50;;;;;;4962480;28;19915;-96
2023/05/02 02:18:24;;;;;;;;;;;12.80;94.60;;;;;;4961796;28;19993;-96
2023/05/02 02:20:50;;;;;;;;;;;12.80;94.60;;;;;;4980190;28;20377;-96
2023/05/02 02:23:18;;;;;;;;;;;12.80;94.70;;;;;;4962541;28;20263;-96
2023/05/02 02:25:44;;;;;;;;;;;12.90;94.60;;;;;;4962281;28;19918;-96
2023/05/02 02:28:09;;;;;;;;;;;12.90;94.50;;;;;;4961806;28;19910;-96
2023/05/02 02:30:35;;;;;;;;;;;12.90;94.40;;;;;;4980452;28;19914;-96
2023/05/02 02:33:01;;;;;;;;;;;12.90;94.30;;;;;;4963273;28;19910;-96
2023/05/02 02:35:36;;;;;;;;;;;12.90;94.20;;;;;;4963396;28;19937;-96
2023/05/02 02:38:21;;;;;;;;;;;12.90;94.30;;;;;;4964917;28;19910;-96
2023/05/02 02:40:52;;;;;;;;;;;12.90;94.30;;;;;;4967504;28;19960;-96
2023/05/02 02:43:20;;;;;;;;;;;13.00;94.30;;;;;;4967842;28;19977;-96
2023/05/02 02:45:47;;;;;;;;;;;13.00;94.40;;;;;;4966573;28;19914;-96
2023/05/02 02:48:28;;;;;;;;;;;12.90;94.50;;;;;;4966320;28;19910;-96
2023/05/02 02:51:03;;;;;;;;;;;13.00;94.40;;;;;;4984821;28;19981;-96
2023/05/02 02:53:48;;;;;;;;;;;13.10;94.30;;;;;;4984607;28;19933;-96
2023/05/02 02:56:15;;;;;;;;;;;13.10;94.30;;;;;;4967165;28;19921;-96
2023/05/02 02:58:53;;;;;;;;;;;13.10;94.20;;;;;;4966972;28;19917;-96
2023/05/02 03:01:19;;;;;;;;;;;13.10;94.30;;;;;;4966063;28;19910;-96
2023/05/02 03:03:49;;;;;;;;;;;13.10;94.50;;;;;;4982648;28;19914;-96
2023/05/02 03:06:16;;;;;;;;;;;13.10;94.70;;;;;;4965472;28;20402;-96
2023/05/02 03:08:42;;;;;;;;;;;13.10;94.90;;;;;;4965873;28;20009;-96
2023/05/02 03:11:08;;;;;;;;;;;13.00;95.00;;;;;;4965366;28;19956;-96
2023/05/02 03:13:34;;;;;;;;;;;13.10;95.10;;;;;;4966612;28;19911;-96
2023/05/02 03:16:00;;;;;;;;;;;13.10;94.90;;;;;;4966704;28;19913;-96
2023/05/02 03:18:26;;;;;;;;;;;13.10;94.70;;;;;;4984034;28;20329;-96
2023/05/02 03:20:51;;;;;;;;;;;13.10;94.60;;;;;;4966300;28;20345;-96
2023/05/02 03:23:17;;;;;;;;;;;13.10;94.50;;;;;;4983591;28;19910;-96
2023/05/02 03:25:42;;;;;;;;;;;13.10;94.40;;;;;;4982834;28;19910;-96
2023/05/02 03:28:09;;;;;;;;;;;13.10;94.40;;;;;;4983586;28;19933;-96
2023/05/02 03:30:39;;;;;;;;;;;13.10;94.30;;;;;;4964908;28;19914;-96
2023/05/02 03:33:07;;;;;;;;;;;13.10;94.30;;;;;;4982040;28;19914;-96
2023/05/02 03:35:33;;;;;;;;;;;13.10;94.20;;;;;;4980975;28;19914;-96
2023/05/02 03:37:58;;;;;;;;;;;13.00;94.30;;;;;;4962744;28;19933;-96
2023/05/02 03:40:24;;;;;;;;;;;12.90;94.40;;;;;;4963251;28;20282;-96
2023/05/02 03:42:50;;;;;;;;;;;12.90;94.50;;;;;;4980309;28;19914;-96
2023/05/02 03:45:15;;;;;;;;;;;12.90;94.60;;;;;;4980514;28;19925;-96
2023/05/02 03:47:41;;;;;;;;;;;12.80;94.70;;;;;;4962654;28;19910;-96
2023/05/02 03:50:07;;;;;;;;;;;12.80;94.70;;;;;;4963671;28;20271;-96
2023/05/02 03:52:33;;;;;;;;;;;12.80;94.80;;;;;;4980335;28;19914;-96
2023/05/02 03:55:00;;;;;;;;;;;12.80;94.90;;;;;;4980686;28;19922;-96
2023/05/02 03:57:29;;;;;;;;;;;12.80;94.90;;;;;;4963001;28;19945;-96
2023/05/02 03:59:54;;;;;;;;;;;12.80;95.10;;;;;;4961390;28;19910;-96
2023/05/02 04:02:20;;;;;;;;;;;12.80;95.20;;;;;;4961605;28;19910;-96
2023/05/02 04:04:46;;;;;;;;;;;12.80;95.30;;;;;;4961631;28;19933;-96
2023/05/02 04:07:18;;;;;;;;;;;12.80;95.30;;;;;;4961645;28;19942;-96
2023/05/02 04:09:44;;;;;;;;;;;12.80;95.30;;;;;;4961776;28;19917;-96
2023/05/02 04:12:09;;;;;;;;;;;12.80;95.30;;;;;;4962172;28;19910;-96
2023/05/02 04:14:35;;;;;;;;;;;12.80;95.20;;;;;;4979827;28;19925;-96
2023/05/02 04:17:01;;;;;;;;;;;12.90;95.10;;;;;;4962443;28;19910;-96
2023/05/02 04:19:26;;;;;;;;;;;12.80;95.00;;;;;;4963585;28;19910;-96
2023/05/02 04:21:52;;;;;;;;;;;12.90;94.90;;;;;;4962814;28;19957;-96
2023/05/02 04:24:17;;;;;;;;;;;12.90;94.70;;;;;;4981256;28;19910;-96
2023/05/02 04:26:43;;;;;;;;;;;12.90;94.60;;;;;;4963537;28;19917;-96
2023/05/02 04:29:09;;;;;;;;;;;12.90;94.40;;;;;;4963370;28;19917;-96
2023/05/02 04:31:35;;;;;;;;;;;12.90;94.30;;;;;;4962016;28;19914;-96
2023/05/02 04:34:00;;;;;;;;;;;12.90;94.10;;;;;;4980135;28;19942;-96
2023/05/02 04:36:27;;;;;;;;;;;12.90;93.90;;;;;;4962002;28;20282;-96
2023/05/02 04:38:52;;;;;;;;;;;12.90;93.80;;;;;;4961913;28;19917;-96
2023/05/02 04:41:18;;;;;;;;;;;12.90;93.80;;;;;;4960929;28;19914;-96
2023/05/02 04:43:44;;;;;;;;;;;12.90;93.70;;;;;;4959647;28;19910;-96
2023/05/02 04:46:10;;;;;;;;;;;13.00;93.70;;;;;;4960073;28;19993;-96
2023/05/02 04:48:35;;;;;;;;;;;13.00;93.60;;;;;;4959989;28;19952;-96
2023/05/02 04:51:01;;;;;;;;;;;13.00;93.40;;;;;;4977620;28;19934;-96
2023/05/02 04:53:27;;;;;;;;;;;13.10;93.30;;;;;;4976829;28;20402;-96
2023/05/02 04:55:53;;;;;;;;;;;13.10;93.30;;;;;;4977114;28;19914;-96
2023/05/02 04:58:19;;;;;;;;;;;13.10;93.10;;;;;;4959021;28;20286;-96
2023/05/02 05:00:44;;;;;;;;;;;13.10;93.10;;;;;;4975725;28;19910;-96
2023/05/02 05:03:10;;;;;;;;;;;13.20;92.90;;;;;;4959424;28;19917;-96
2023/05/02 05:05:36;;;;;;;;;;;13.30;92.60;;;;;;4976601;28;19914;-96
2023/05/02 05:08:01;;;;;;;;;;;13.30;92.40;;;;;;4958817;28;19910;-96
2023/05/02 05:10:27;;;;;;;;;;;13.40;92.00;;;;;;4958870;28;19910;-96
2023/05/02 05:12:53;;;;;;;;;;;13.40;91.60;;;;;;4958725;28;19948;-96
2023/05/02 05:15:22;;;;;;;;;;;13.50;91.40;;;;;;4975863;28;19972;-96
2023/05/02 05:17:48;;;;;;;;;;;13.60;91.10;;;;;;4975950;28;19913;-96
2023/05/02 05:20:14;;;;;;;;;;;13.70;90.80;;;;;;4958250;28;19934;-96
2023/05/02 05:22:40;;;;;;;;;;;13.70;90.60;;;;;;4958278;28;19910;-96
2023/05/02 05:25:06;;;;;;;;;;;13.70;90.70;;;;;;4975969;28;19965;-96
2023/05/02 05:27:36;;;;;;;;;;;13.80;90.20;;;;;;4958027;28;19917;-96
2023/05/02 05:30:05;;;;;;;;;;;13.80;90.30;;;;;;4958488;28;19944;-96
2023/05/02 05:32:34;;;;;;;;;;;13.90;89.90;;;;;;4958174;28;20362;-96
2023/05/02 05:35:00;;;;;;;;;;;13.90;89.80;;;;;;4975563;28;19914;-96
2023/05/02 05:37:26;;;;;;;;;;;13.90;89.80;;;;;;4958694;28;20366;-96
2023/05/02 05:39:55;;;;;;;;;;;13.90;89.80;;;;;;4976808;28;19910;-96
2023/05/02 05:42:20;;;;;;;;;;;13.90;89.70;;;;;;4959075;28;19910;-96
2023/05/02 05:44:46;;;;;;;;;;;13.90;90.00;;;;;;4959417;28;19910;-96
2023/05/02 05:47:11;;;;;;;;;;;13.90;90.00;;;;;;4976852;28;20422;-96
2023/05/02 05:49:37;;;;;;;;;;;13.90;90.10;;;;;;4958911;28;19910;-96
2023/05/02 05:52:03;;;;;;;;;;;14.00;90.00;;;;;;4959106;28;20005;-96
2023/05/02 05:54:28;;;;;;;;;;;14.00;89.90;;;;;;4950548;23;20465;-95
2023/05/02 05:56:54;;;;;;;;;;;14.00;89.70;;;;;;4955695;28;19914;-94
2023/05/02 05:59:20;;;;;;;;;;;14.10;89.80;;;;;;4955859;29;19938;-95
2023/05/02 06:01:45;;;;;;;;;;;14.10;89.80;;;;;;4956042;29;20005;-95
2023/05/02 06:04:11;;;;;;;;;;;14.20;89.70;;;;;;4955719;29;20405;-95
2023/05/02 06:06:36;;;;;;;;;;;14.30;89.60;;;;;;4955506;28;20259;-95
2023/05/02 06:09:03;;;;;;;;;;;14.40;89.40;;;;;;4938392;29;19961;-95
2023/05/02 06:11:28;;;;;;;;;;;14.40;89.20;;;;;;4956917;29;19910;-95
2023/05/02 06:13:54;;;;;;;;;;;14.50;89.00;;;;;;4997630;23;20412;-96
2023/05/02 06:16:20;;;;;;;;;;;14.50;88.80;;;;;;4981994;28;19945;-96
2023/05/02 06:18:46;;;;;;;;;;;14.60;88.50;;;;;;4999442;28;19960;-96
2023/05/02 06:21:11;;;;;;;;;;;14.70;88.30;;;;;;4999203;28;20364;-96
2023/05/02 06:23:37;;;;;;;;;;;14.70;88.00;;;;;;4981717;28;20012;-96
2023/05/02 06:26:04;;;;;;;;;;;14.70;87.80;;;;;;4999646;28;19910;-96
2023/05/02 06:28:30;;;;;;;;;;;14.70;87.40;;;;;;4982110;28;20305;-96
2023/05/02 06:30:56;;;;;;;;;;;14.80;86.90;;;;;;4982413;28;19916;-96
2023/05/02 06:33:22;;;;;;;;;;;14.80;87.00;;;;;;5001401;28;19910;-96
2023/05/02 06:35:52;;;;;;;;;;;14.80;86.70;;;;;;4984144;28;19917;-96
2023/05/02 06:38:17;;;;;;;;;;;14.80;86.70;;;;;;4984134;28;19914;-96
2023/05/02 06:40:44;;;;;;;;;;;14.80;86.70;;;;;;4982498;28;19917;-96
2023/05/02 06:43:10;;;;;;;;;;;14.80;86.30;;;;;;4998529;28;19909;-96
2023/05/02 06:45:36;;;;;;;;;;;14.90;86.20;;;;;;4963069;28;19910;-96
2023/05/02 06:48:02;;;;;;;;;;;14.90;86.00;;;;;;4963290;28;19918;-96
2023/05/02 06:50:28;;;;;;;;;;;14.80;86.10;;;;;;4963196;28;19917;-96
2023/05/02 06:52:53;;;;;;;;;;;14.90;86.10;;;;;;4979775;28;19910;-96
2023/05/02 06:55:20;;;;;;;;;;;14.80;86.20;;;;;;4980790;28;19914;-96
2023/05/02 06:57:45;;;;;;;;;;;14.90;86.10;;;;;;4962781;28;19921;-96
2023/05/02 07:00:12;;;;;;;;;;;14.90;86.00;;;;;;4962779;28;19911;-96
2023/05/02 07:02:37;;;;;;;;;;;14.90;86.00;;;;;;4964927;28;19917;-96
2023/05/02 07:05:03;;;;;;;;;;;14.90;86.30;;;;;;4981746;28;19937;-96
2023/05/02 07:07:29;;;;;;;;;;;14.80;86.30;;;;;;4963579;28;19957;-96
2023/05/02 07:09:56;;;;;;;;;;;14.80;86.50;;;;;;4964023;28;19918;-96
2023/05/02 07:12:22;;;;;;;;;;;14.80;86.70;;;;;;4981419;28;19917;-96
2023/05/02 07:14:47;;;;;;;;;;;14.80;87.00;;;;;;4963385;28;19926;-96
2023/05/02 07:17:14;;;;;;;;;;;14.60;87.70;;;;;;4963393;28;20357;-96
2023/05/02 07:19:40;;;;;;;;;;;14.60;88.00;;;;;;4980608;28;19910;-96
2023/05/02 07:22:06;;;;;;;;;;;14.60;88.30;;;;;;4962463;28;19918;-96
2023/05/02 07:24:31;;;;;;;;;;;14.60;88.50;;;;;;4963368;28;19911;-96
2023/05/02 07:26:57;;;;;;;;;;;14.60;88.50;;;;;;4964139;28;19950;-96
2023/05/02 07:29:23;;;;;;;;;;;14.60;88.30;;;;;;4983095;28;19910;-96
2023/05/02 07:31:49;;;;;;;;;;;14.70;87.90;;;;;;4966875;28;19910;-96
2023/05/02 07:34:15;;;;;;;;;;;14.80;87.50;;;;;;4983859;28;19965;-96
2023/05/02 07:36:40;;;;;;;;;;;14.90;87.50;;;;;;4967506;28;20286;-96
2023/05/02 07:39:06;;;;;;;;;;;14.90;87.00;;;;;;4967158;28;19910;-96
2023/05/02 07:41:32;;;;;;;;;;;15.00;86.60;;;;;;4985535;28;19911;-96
2023/05/02 07:43:58;;;;;;;;;;;15.10;86.20;;;;;;4985604;28;19916;-96
2023/05/02 07:46:24;;;;;;;;;;;15.10;86.30;;;;;;4966661;28;20361;-96
2023/05/02 07:48:53;;;;;;;;;;;15.10;86.20;;;;;;4986491;28;19961;-96
2023/05/02 07:51:20;;;;;;;;;;;15.20;86.20;;;;;;4973830;28;19933;-96
2023/05/02 07:53:49;;;;;;;;;;;15.20;86.00;;;;;;4975040;28;19914;-96
2023/05/02 07:56:15;;;;;;;;;;;15.20;86.20;;;;;;4992403;28;19925;-96
2023/05/02 07:58:44;;;;;;;;;;;15.20;86.80;;;;;;4971149;28;19910;-96
2023/05/02 08:01:10;;;;;;;;;;;15.10;86.90;;;;;;4972014;28;19917;-96
2023/05/02 08:03:36;;;;;;;;;;;15.00;87.50;;;;;;4972304;28;19965;-96
2023/05/02 08:06:01;;;;;;;;;;;15.00;88.10;;;;;;4968323;28;19914;-95
2023/05/02 08:08:27;;;;;;;;;;;15.00;88.00;;;;;;4993002;23;19937;-95
2023/05/02 08:10:52;;;;;;;;;;;15.00;88.00;;;;;;4977422;28;20277;-96
2023/05/02 08:13:18;;;;;;;;;;;15.10;87.50;;;;;;4977892;28;19917;-95
2023/05/02 08:15:44;;;;;;;;;;;15.10;87.10;;;;;;4976254;28;20362;-95
2023/05/02 08:18:10;;;;;;;;;;;15.10;86.60;;;;;;4959029;28;19918;-95
2023/05/02 08:20:36;;;;;;;;;;;15.10;86.30;;;;;;4976598;28;19917;-95
2023/05/02 08:23:01;;;;;;;;;;;15.20;86.60;;;;;;4976400;28;20390;-94
2023/05/02 08:25:27;;;;;;;;;;;15.20;86.30;;;;;;4976518;28;20004;-95
2023/05/02 08:27:52;;;;;;;;;;;15.30;86.40;;;;;;4976397;28;19910;-94
2023/05/02 08:30:18;;;;;;;;;;;15.40;87.00;;;;;;4976105;28;20374;-94
2023/05/02 08:32:44;;;;;;;;;;;15.40;87.40;;;;;;4969621;28;19958;-94
2023/05/02 08:35:10;;;;;;;;;;;15.40;87.90;;;;;;4957219;28;19915;-96
2023/05/02 08:37:36;;;;;;;;;;;15.40;87.90;;;;;;4957945;29;20430;-95
2023/05/02 08:40:01;;;;;;;;;;;15.40;87.40;;;;;;4956972;29;19917;-94
2023/05/02 08:42:29;;;;;;;;;;;15.40;86.90;;;;;;4939587;29;19922;-95
2023/05/02 08:44:54;;;;;;;;;;;15.50;86.70;;;;;;4956792;29;19910;-94
2023/05/02 08:47:21;;;;;;;;;;;15.50;86.50;;;;;;4956783;29;20282;-94
2023/05/02 08:49:47;;;;;;;;;;;15.60;86.60;;;;;;4957020;29;20525;-94
2023/05/02 08:52:13;;;;;;;;;;;15.60;86.90;;;;;;4956643;29;19911;-94
2023/05/02 08:54:39;;;;;;;;;;;15.60;86.70;;;;;;4956833;29;19917;-95
2023/05/02 08:57:05;;;;;;;;;;;15.60;86.80;;;;;;4957011;29;19911;-94
2023/05/02 08:59:31;;;;;;;;;;;15.60;87.00;;;;;;4939290;29;20035;-94
2023/05/02 09:02:03;;;;;;;;;;;15.60;87.30;;;;;;4956488;29;19962;-94
2023/05/02 09:04:30;;;;;;;;;;;15.70;87.70;;;;;;4939291;29;19911;-94
2023/05/02 09:06:57;;;;;;;;;;;15.80;86.90;;;;;;4956274;29;19917;-94
2023/05/02 09:09:23;;;;;;;;;;;15.80;86.60;;;;;;4956510;29;20005;-95
2023/05/02 09:11:50;;;;;;;;;;;15.80;86.60;;;;;;4956382;29;19910;-95
2023/05/02 09:14:16;;;;;;;;;;;15.90;86.60;;;;;;4956262;28;20286;-94
2023/05/02 09:16:42;;;;;;;;;;;16.00;85.50;;;;;;4956243;29;19986;-95
2023/05/02 09:19:08;;;;;;;;;;;16.10;85.70;;;;;;4956209;29;19954;-95
2023/05/02 09:21:41;;;;;;;;;;;16.20;85.30;;;;;;4956197;29;19910;-94
2023/05/02 09:24:20;;;;;;;;;;;16.30;84.80;;;;;;4938851;29;19911;-95
2023/05/02 09:26:56;;;;;;;;;;;16.20;84.80;;;;;;4956594;29;19914;-95
2023/05/02 09:29:21;;;;;;;;;;;16.30;84.80;;;;;;4938849;29;19949;-94
2023/05/02 09:31:47;;;;;;;;;;;16.40;84.30;;;;;;4938867;29;19950;-94
2023/05/02 09:34:14;;;;;;;;;;;16.40;84.80;;;;;;4955868;28;19946;-95
2023/05/02 09:36:41;;;;;;;;;;;16.50;85.10;;;;;;4955906;29;19914;-95
2023/05/02 09:39:12;;;;;;;;;;;16.50;84.30;;;;;;4955898;29;19918;-96
2023/05/02 09:41:45;;;;;;;;;;;16.60;84.10;;;;;;4955857;29;19946;-95
2023/05/02 09:44:14;;;;;;;;;;;16.70;83.80;;;;;;4955928;29;19918;-95
2023/05/02 09:46:41;;;;;;;;;;;16.70;83.70;;;;;;4938406;29;19918;-96
2023/05/02 09:49:08;;;;;;;;;;;16.60;83.70;;;;;;4956210;29;19911;-95
2023/05/02 09:51:34;;;;;;;;;;;16.60;82.70;;;;;;4938589;29;19911;-95
2023/05/02 09:54:00;;;;;;;;;;;16.60;83.20;;;;;;4939286;29;19911;-95
2023/05/02 09:56:25;;;;;;;;;;;16.70;83.20;;;;;;4956076;29;19921;-95
2023/05/02 09:58:51;;;;;;;;;;;16.70;83.30;;;;;;4955538;28;19914;-96
2023/05/02 10:01:17;;;;;;;;;;;16.80;83.70;;;;;;4938311;29;20045;-96
2023/05/02 10:03:45;;;;;;;;;;;16.80;83.20;;;;;;4955574;29;19910;-96
2023/05/02 10:06:11;;;;;;;;;;;16.90;83.40;;;;;;4938167;29;20005;-96
2023/05/02 10:08:38;;;;;;;;;;;17.00;82.80;;;;;;4955422;29;19962;-95
2023/05/02 10:11:06;;;;;;;;;;;17.00;83.40;;;;;;4955909;29;19910;-96
2023/05/02 10:13:33;;;;;;;;;;;17.10;83.30;;;;;;4938286;29;19911;-96
2023/05/02 10:16:00;;;;;;;;;;;17.10;83.50;;;;;;4955765;29;19914;-96
2023/05/02 10:18:30;;;;;;;;;;;17.10;82.90;;;;;;4938702;29;19910;-96
2023/05/02 10:21:04;;;;;;;;;;;17.20;83.10;;;;;;4955785;29;19910;-96
2023/05/02 10:23:30;;;;;;;;;;;17.30;82.60;;;;;;4955470;29;19918;-96
2023/05/02 10:25:58;;;;;;;;;;;17.30;82.70;;;;;;4938302;29;19910;-95
2023/05/02 10:28:28;;;;;;;;;;;17.30;82.60;;;;;;4955741;29;19910;-95
2023/05/02 10:30:54;;;;;;;;;;;17.30;83.30;;;;;;4955724;29;19911;-95
2023/05/02 10:33:21;;;;;;;;;;;17.30;82.50;;;;;;4938163;29;20294;-95
2023/05/02 10:35:46;;;;;;;;;;;17.30;83.40;;;;;;4955911;29;19915;-96
2023/05/02 10:38:19;;;;;;;;;;;17.30;82.30;;;;;;4955647;29;20359;-95
2023/05/02 10:40:56;;;;;;;;;;;17.40;82.40;;;;;;4955483;29;19910;-96
2023/05/02 10:43:23;;;;;;;;;;;17.50;81.70;;;;;;4955546;29;19961;-96
2023/05/02 10:45:48;;;;;;;;;;;17.60;81.80;;;;;;4955312;29;19914;-95
2023/05/02 10:48:21;;;;;;;;;;;17.70;81.50;;;;;;4955572;29;19917;-95
2023/05/02 10:50:50;;;;;;;;;;;17.80;82.30;;;;;;4955290;29;19914;-96
2023/05/02 10:53:36;;;;;;;;;;;17.80;81.50;;;;;;4955818;29;20006;-96
2023/05/02 10:56:12;;;;;;;;;;;17.70;80.40;;;;;;4954712;28;19997;-96
2023/05/02 10:58:38;;;;;;;;;;;17.70;80.40;;;;;;4955710;28;19911;-95
2023/05/02 11:01:22;;;;;;;;;;;17.70;81.20;;;;;;4958901;29;20005;-95
2023/05/02 11:03:55;;;;;;;;;;;17.80;80.40;;;;;;4959268;29;20351;-96
2023/05/02 11:06:20;;;;;;;;;;;17.80;81.10;;;;;;4958912;29;19910;-96
2023/05/02 11:08:46;;;;;;;;;;;17.80;80.50;;;;;;4958543;29;19922;-95
2023/05/02 11:11:30;;;;;;;;;;;17.90;80.60;;;;;;4958848;29;19910;-95
2023/05/02 11:13:55;;;;;;;;;;;17.90;80.00;;;;;;4958833;29;19918;-94
2023/05/02 11:16:21;;;;;;;;;;;17.90;79.30;;;;;;4958524;29;19914;-95
2023/05/02 11:18:59;;;;;;;;;;;17.90;79.50;;;;;;4958917;29;19921;-95
2023/05/02 11:21:30;;;;;;;;;;;17.80;79.80;;;;;;4941137;29;19974;-96
2023/05/02 11:24:14;;;;;;;;;;;17.80;79.10;;;;;;4958203;29;19918;-95
2023/05/02 11:26:40;;;;;;;;;;;17.90;79.40;;;;;;4941030;29;19957;-96
2023/05/02 11:29:05;;;;;;;;;;;17.90;79.10;;;;;;4958135;29;19915;-95
2023/05/02 11:31:31;;;;;;;;;;;18.00;79.10;;;;;;4940318;29;19915;-95
2023/05/02 11:33:57;;;;;;;;;;;18.00;79.10;;;;;;4957924;28;20382;-95
2023/05/02 11:36:31;;;;;;;;;;;18.00;78.40;;;;;;4958710;29;19915;-96
2023/05/02 11:38:56;;;;;;;;;;;18.00;78.20;;;;;;4958042;29;19911;-95
2023/05/02 11:41:22;;;;;;;;;;;18.00;78.30;;;;;;4958296;29;19989;-95
2023/05/02 11:44:04;;;;;;;;;;;18.00;77.80;;;;;;4951527;29;19921;-96
2023/05/02 11:46:30;;;;;;;;;;;18.00;77.80;;;;;;4954133;29;20378;-96
2023/05/02 11:48:59;;;;;;;;;;;18.00;78.10;;;;;;4950241;29;19917;-96
2023/05/02 11:51:26;;;;;;;;;;;18.10;77.70;;;;;;4957543;29;19910;-96
2023/05/02 11:53:52;;;;;;;;;;;18.00;76.10;;;;;;4957599;29;19934;-96
2023/05/02 11:56:23;;;;;;;;;;;18.10;77.00;;;;;;4973353;29;19982;-96
2023/05/02 11:58:57;;;;;;;;;;;18.10;76.40;;;;;;5008264;23;19929;-96
2023/05/02 12:01:24;;;;;;;;;;;18.10;76.30;;;;;;4999275;28;19894;-96
2023/05/02 12:06:28;;;;;;;;;;;18.10;76.70;;;;;;4990110;28;19926;-96
2023/05/02 12:09:07;;;;;;;;;;;18.10;76.80;;;;;;4995786;28;19910;-96
2023/05/02 12:11:34;;;;;;;;;;;18.10;76.70;;;;;;4976765;28;19910;-96
2023/05/02 12:14:01;;;;;;;;;;;18.10;77.20;;;;;;4988323;28;19910;-96
2023/05/02 12:16:26;;;;;;;;;;;18.10;76.30;;;;;;4960176;28;19961;-96
2023/05/02 12:18:52;;;;;;;;;;;18.20;76.70;;;;;;4959276;28;20382;-96
2023/05/02 12:21:18;;;;;;;;;;;18.30;76.50;;;;;;4959422;28;19918;-96
2023/05/02 12:23:43;;;;;;;;;;;18.30;77.00;;;;;;4976642;28;19910;-95
2023/05/02 12:26:16;;;;;;;;;;;18.30;76.90;;;;;;4976261;28;20034;-96
2023/05/02 12:28:49;;;;;;;;;;;18.30;77.00;;;;;;4959282;28;19910;-95
2023/05/02 12:31:15;;;;;;;;;;;18.20;77.50;;;;;;4976384;28;19918;-96
2023/05/02 12:33:41;;;;;;;;;;;18.10;78.30;;;;;;4962008;28;20279;-95
2023/05/02 12:36:07;;;;;;;;;;;18.00;79.10;;;;;;4956997;29;19966;-95
2023/05/02 12:38:33;;;;;;;;;;;18.00;79.20;;;;;;4963190;29;19910;-96
2023/05/02 12:40:59;;;;;;;;;;;18.00;79.40;;;;;;4953109;29;19917;-96
2023/05/02 12:43:28;;;;;;;;;;;18.00;79.90;;;;;;4969929;29;19910;-96
2023/05/02 12:46:20;;;;;;;;;;;18.00;79.00;;;;;;4958964;29;19957;-96
2023/05/02 12:49:01;;;;;;;;;;;18.10;80.00;;;;;;4958590;29;19973;-96
2023/05/02 12:51:52;;;;;;;;;;;18.10;80.50;;;;;;4963873;28;20001;-96
2023/05/02 12:54:32;;;;;;;;;;;18.20;79.10;;;;;;4979938;28;19945;-96
2023/05/02 12:57:01;;;;;;;;;;;18.20;78.10;;;;;;4961310;29;19977;-96
2023/05/02 12:59:28;;;;;;;;;;;18.20;77.80;;;;;;4961223;29;19914;-96
2023/05/02 13:01:54;;;;;;;;;;;18.20;78.40;;;;;;4962182;29;19902;-96
2023/05/02 13:04:20;;;;;;;;;;;18.20;78.20;;;;;;4962133;28;19906;-96
2023/05/02 13:06:50;;;;;;;;;;;18.20;78.90;;;;;;4962811;29;20162;-96
2023/05/02 13:09:20;;;;;;;;;;;18.20;79.40;;;;;;4964193;28;19945;-96
2023/05/02 13:11:48;;;;;;;;;;;18.20;78.30;;;;;;4963659;29;19913;-96
2023/05/02 13:14:23;;;;;;;;;;;18.10;77.80;;;;;;4963859;29;19895;-96
2023/05/02 13:16:53;;;;;;;;;;;18.10;76.20;;;;;;4963951;28;19978;-96
2023/05/02 13:19:20;;;;;;;;;;;18.10;76.00;;;;;;4963683;28;19913;-96
2023/05/02 13:21:55;;;;;;;;;;;18.00;74.60;;;;;;4963700;28;19914;-96
2023/05/02 13:24:21;;;;;;;;;;;17.90;74.60;;;;;;4963179;29;19910;-96
2023/05/02 13:26:50;;;;;;;;;;;17.80;74.80;;;;;;5029985;23;19918;-96
2023/05/02 13:29:21;;;;;;;;;;;17.80;75.40;;;;;;4941188;29;19910;-96
2023/05/02 13:31:48;;;;;;;;;;;17.70;75.40;;;;;;4941098;29;19911;-96
2023/05/02 13:34:13;;;;;;;;;;;17.60;75.50;;;;;;4937114;29;19918;-96
2023/05/02 13:36:44;;;;;;;;;;;17.60;76.60;;;;;;4937260;29;19919;-96
2023/05/02 13:39:11;;;;;;;;;;;17.50;77.50;;;;;;4934380;29;19978;-96
2023/05/02 13:41:37;;;;;;;;;;;17.50;76.60;;;;;;4932438;29;19911;-96
2023/05/02 13:44:03;;;;;;;;;;;17.40;78.20;;;;;;4919762;29;19994;-97
2023/05/02 13:46:35;;;;;;;;;;;17.40;77.90;;;;;;4910550;29;19950;-96
2023/05/02 13:49:02;;;;;;;;;;;17.40;78.40;;;;;;4910473;29;19918;-96
2023/05/02 13:51:30;;;;;;;;;;;17.30;77.70;;;;;;4911835;29;19911;-96
2023/05/02 13:53:56;;;;;;;;;;;17.30;78.40;;;;;;4911197;29;19915;-96
2023/05/02 13:56:22;;;;;;;;;;;17.30;78.40;;;;;;4910073;29;19915;-96
2023/05/02 13:58:47;;;;;;;;;;;17.20;78.10;;;;;;4911861;29;19918;-96
2023/05/02 14:01:13;;;;;;;;;;;17.30;78.40;;;;;;4916925;29;19902;-96
2023/05/02 14:03:39;;;;;;;;;;;17.10;78.20;;;;;;4912433;29;19977;-96
2023/05/02 14:06:05;;;;;;;;;;;17.10;78.90;;;;;;4915277;29;19911;-96
2023/05/02 14:08:31;;;;;;;;;;;17.20;77.80;;;;;;4915718;29;19915;-96
2023/05/02 14:10:58;;;;;;;;;;;17.10;78.00;;;;;;4916233;29;19911;-96
2023/05/02 14:13:26;;;;;;;;;;;17.10;78.60;;;;;;4918468;29;19914;-96
2023/05/02 14:15:52;;;;;;;;;;;17.00;79.40;;;;;;4916075;29;19921;-96
2023/05/02 14:18:18;;;;;;;;;;;17.00;78.60;;;;;;4917304;29;19911;-96
2023/05/02 14:20:44;;;;;;;;;;;16.90;79.30;;;;;;4916875;29;20058;-96